createdAt,value
2016-12-02T00:00:20.978Z,0
2016-12-02T00:01:30.989Z,0
2016-12-02T00:02:41.310Z,0
2016-12-02T00:03:51.334Z,0
2016-12-02T00:05:01.653Z,0
2016-12-02T00:06:11.668Z,0
2016-12-02T00:07:21.382Z,0
2016-12-02T00:08:31.700Z,0
2016-12-02T00:09:42.026Z,0
2016-12-02T00:10:52.032Z,0
2016-12-02T00:12:01.740Z,0
2016-12-02T00:13:12.066Z,0
2016-12-02T00:14:22.078Z,0
2016-12-02T00:15:32.086Z,0
2016-12-02T00:16:42.103Z,0
2016-12-02T00:17:52.129Z,0
2016-12-02T00:19:02.152Z,0
2016-12-02T00:20:12.497Z,0
2016-12-02T00:21:22.834Z,0
2016-12-02T00:22:32.852Z,0
2016-12-02T00:23:42.564Z,0
2016-12-02T00:24:52.895Z,0
2016-12-02T00:26:03.212Z,0
2016-12-02T00:27:13.263Z,0
2016-12-02T00:28:23.601Z,0
2016-12-02T00:29:33.612Z,0
2016-12-02T00:30:43.020Z,0
2016-12-02T00:31:53.351Z,0
2016-12-02T00:33:03.363Z,0
2016-12-02T00:34:13.693Z,0
2016-12-02T00:35:24.022Z,0
2016-12-02T00:36:33.712Z,0
2016-12-02T00:37:43.728Z,0
2016-12-02T00:38:53.736Z,0
2016-12-02T00:40:03.448Z,0
2016-12-02T00:41:13.150Z,0
2016-12-02T00:42:23.466Z,0
2016-12-02T00:43:33.164Z,0
2016-12-02T00:44:43.485Z,0
2016-12-02T00:45:53.808Z,0
2016-12-02T00:47:03.837Z,0
2016-12-02T00:48:14.155Z,0
2016-12-02T00:49:24.169Z,0
2016-12-02T00:50:34.489Z,0
2016-12-02T00:51:44.815Z,0
2016-12-02T00:52:55.131Z,0
2016-12-02T00:54:05.163Z,0
2016-12-02T00:55:15.470Z,0
2016-12-02T00:56:25.852Z,0
2016-12-02T00:57:35.868Z,0
2016-12-02T00:58:45.902Z,0
2016-12-02T00:59:55.923Z,0
2016-12-02T01:01:05.948Z,0
2016-12-02T01:02:15.995Z,0
2016-12-02T01:03:25.712Z,0
2016-12-02T01:04:36.023Z,0
2016-12-02T01:05:45.790Z,0
2016-12-02T01:06:55.498Z,0
2016-12-02T01:08:05.524Z,0
2016-12-02T01:09:15.551Z,0
2016-12-02T01:10:25.868Z,0
2016-12-02T01:11:36.219Z,0
2016-12-02T01:12:46.266Z,0
2016-12-02T01:13:56.283Z,0
2016-12-02T01:15:06.619Z,0
2016-12-02T01:16:16.625Z,0
2016-12-02T01:17:26.968Z,0
2016-12-02T01:18:37.290Z,0
2016-12-02T01:19:47.306Z,0
2016-12-02T01:20:57.624Z,0
2016-12-02T01:22:07.967Z,0
2016-12-02T01:23:18.291Z,0
2016-12-02T01:24:28.002Z,0
2016-12-02T01:25:38.010Z,0
2016-12-02T01:26:48.026Z,0
2016-12-02T01:27:58.348Z,0
2016-12-02T01:29:08.674Z,0
2016-12-02T01:30:18.691Z,0
2016-12-02T01:31:28.418Z,0
2016-12-02T01:32:38.430Z,0
2016-12-02T01:33:48.757Z,0
2016-12-02T01:34:58.767Z,0
2016-12-02T01:36:08.790Z,0
2016-12-02T01:37:18.806Z,0
2016-12-02T01:38:29.143Z,0
2016-12-02T01:39:38.850Z,0
2016-12-02T01:40:48.860Z,0
2016-12-02T01:41:59.193Z,0
2016-12-02T01:43:09.505Z,0
2016-12-02T01:44:19.206Z,0
2016-12-02T01:45:29.200Z,0
2016-12-02T01:46:39.525Z,0
2016-12-02T01:47:49.846Z,0
2016-12-02T01:48:59.873Z,0
2016-12-02T01:50:09.886Z,0
2016-12-02T01:51:20.212Z,0
2016-12-02T01:52:29.916Z,0
2016-12-02T01:53:39.626Z,0
2016-12-02T01:54:49.973Z,0
2016-12-02T01:55:59.974Z,0
2016-12-02T01:57:09.685Z,0
2016-12-02T01:58:19.705Z,0
2016-12-02T01:59:29.780Z,0
2016-12-02T02:00:40.107Z,0
2016-12-02T02:01:49.844Z,0
2016-12-02T02:02:59.869Z,0
2016-12-02T02:04:09.575Z,0
2016-12-02T02:05:19.927Z,0
2016-12-02T02:06:30.260Z,0
2016-12-02T02:07:40.580Z,0
2016-12-02T02:08:50.277Z,0
2016-12-02T02:10:00.609Z,0
2016-12-02T02:11:10.925Z,0
2016-12-02T02:12:21.247Z,0
2016-12-02T02:13:31.569Z,0
2016-12-02T02:14:41.907Z,0
2016-12-02T02:15:52.239Z,0
2016-12-02T02:17:02.564Z,0
2016-12-02T02:18:13.130Z,0
2016-12-02T02:19:23.462Z,0
2016-12-02T02:20:33.463Z,0
2016-12-02T02:21:43.171Z,0
2016-12-02T02:22:52.903Z,0
2016-12-02T02:24:02.609Z,0
2016-12-02T02:25:12.626Z,0
2016-12-02T02:26:22.938Z,0
2016-12-02T02:27:32.952Z,0
2016-12-02T02:28:43.271Z,0
2016-12-02T02:29:53.304Z,0
2016-12-02T02:31:03.634Z,0
2016-12-02T02:32:13.330Z,0
2016-12-02T02:33:23.649Z,0
2016-12-02T02:34:33.679Z,0
2016-12-02T02:35:43.074Z,0
2016-12-02T02:36:53.083Z,0
2016-12-02T02:38:03.405Z,0
2016-12-02T02:39:13.726Z,0
2016-12-02T02:40:23.733Z,0
2016-12-02T02:41:34.054Z,0
2016-12-02T02:42:44.056Z,0
2016-12-02T02:43:54.398Z,0
2016-12-02T02:45:04.409Z,0
2016-12-02T02:46:14.737Z,0
2016-12-02T02:47:24.432Z,0
2016-12-02T02:48:34.135Z,0
2016-12-02T02:49:43.911Z,0
2016-12-02T02:50:53.920Z,0
2016-12-02T02:52:04.246Z,0
2016-12-02T02:53:14.565Z,0
2016-12-02T02:54:24.575Z,0
2016-12-02T02:55:34.899Z,0
2016-12-02T02:56:45.220Z,0
2016-12-02T02:57:55.588Z,0
2016-12-02T02:59:05.605Z,0
2016-12-02T03:00:15.951Z,0
2016-12-02T03:01:26.274Z,0
2016-12-02T03:33:01.558Z,0
2016-12-02T03:34:11.620Z,0
2016-12-02T03:35:21.640Z,0
2016-12-02T03:36:31.650Z,0
2016-12-02T03:37:41.968Z,0
2016-12-02T03:38:52.297Z,0
2016-12-02T03:40:02.633Z,0
2016-12-02T03:41:12.964Z,0
2016-12-02T03:42:22.344Z,0
2016-12-02T03:43:32.364Z,0
2016-12-02T03:44:42.718Z,0
2016-12-02T03:45:52.741Z,0
2016-12-02T03:47:03.078Z,0
2016-12-02T03:48:13.445Z,0
2016-12-02T03:49:23.765Z,0
2016-12-02T03:50:33.793Z,0
2016-12-02T03:51:43.811Z,0
2016-12-02T03:52:54.141Z,0
2016-12-02T03:54:04.159Z,0
2016-12-02T03:55:14.174Z,0
2016-12-02T03:56:23.873Z,0
2016-12-02T03:57:34.197Z,0
2016-12-02T03:58:44.530Z,0
2016-12-02T03:59:54.550Z,0
2016-12-02T04:01:04.267Z,0
2016-12-02T04:02:14.589Z,0
2016-12-02T04:03:24.905Z,0
2016-12-02T04:04:34.919Z,0
2016-12-02T04:05:44.333Z,0
2016-12-02T04:06:54.334Z,0
2016-12-02T04:08:04.383Z,0
2016-12-02T04:09:14.706Z,0
2016-12-02T04:10:24.715Z,0
2016-12-02T04:11:34.732Z,0
2016-12-02T04:12:44.738Z,0
2016-12-02T04:13:54.461Z,0
2016-12-02T04:15:04.492Z,0
2016-12-02T04:16:14.193Z,0
2016-12-02T04:17:24.216Z,0
2016-12-02T04:18:34.553Z,0
2016-12-02T04:19:44.269Z,0
2016-12-02T04:20:54.620Z,0
2016-12-02T04:22:04.652Z,0
2016-12-02T04:23:14.976Z,0
2016-12-02T04:24:24.985Z,0
2016-12-02T04:25:35.317Z,0
2016-12-02T04:26:45.678Z,0
2016-12-02T04:27:55.692Z,0
2016-12-02T04:29:06.012Z,0
2016-12-02T04:30:16.343Z,0
2016-12-02T04:31:26.082Z,0
2016-12-02T04:32:35.788Z,0
2016-12-02T04:33:46.109Z,0
2016-12-02T04:34:55.821Z,0
2016-12-02T04:36:06.152Z,0
2016-12-02T04:37:16.168Z,0
2016-12-02T04:38:26.491Z,0
2016-12-02T04:39:36.188Z,0
2016-12-02T04:40:46.511Z,0
2016-12-02T04:41:56.540Z,0
2016-12-02T04:43:06.873Z,0
2016-12-02T04:44:16.889Z,0
2016-12-02T04:45:26.907Z,0
2016-12-02T04:46:36.603Z,0
2016-12-02T04:47:46.965Z,0
2016-12-02T04:48:57.291Z,0
2016-12-02T04:50:07.309Z,0
2016-12-02T04:51:17.009Z,0
2016-12-02T04:52:26.702Z,0
2016-12-02T04:53:37.027Z,0
2016-12-02T04:54:47.057Z,0
2016-12-02T04:55:57.624Z,0
2016-12-02T04:57:07.637Z,0
2016-12-02T04:58:17.944Z,0
2016-12-02T04:59:27.961Z,0
2016-12-02T05:00:37.667Z,0
2016-12-02T05:01:47.990Z,0
2016-12-02T05:02:58.324Z,0
2016-12-02T05:04:08.669Z,0
2016-12-02T05:05:18.689Z,0
2016-12-02T05:06:29.013Z,0
2016-12-02T05:07:39.335Z,0
2016-12-02T05:08:49.349Z,0
2016-12-02T05:09:59.675Z,0
2016-12-02T05:11:09.691Z,0
2016-12-02T05:12:19.404Z,0
2016-12-02T05:13:29.419Z,0
2016-12-02T05:14:39.444Z,0
2016-12-02T05:15:49.770Z,0
2016-12-02T05:16:59.776Z,0
2016-12-02T05:18:09.473Z,0
2016-12-02T05:19:19.804Z,0
2016-12-02T05:20:30.151Z,0
2016-12-02T05:21:40.477Z,0
2016-12-02T05:22:50.794Z,0
2016-12-02T05:24:01.118Z,0
2016-12-02T05:25:11.471Z,0
2016-12-02T05:26:21.472Z,0
2016-12-02T05:27:31.182Z,0
2016-12-02T05:28:41.518Z,0
2016-12-02T05:29:51.845Z,0
2016-12-02T05:31:02.198Z,0
2016-12-02T05:32:12.243Z,0
2016-12-02T05:33:21.939Z,0
2016-12-02T05:34:31.647Z,0
2016-12-02T05:35:41.337Z,0
2016-12-02T05:36:51.664Z,0
2016-12-02T05:38:01.356Z,0
2016-12-02T05:39:10.752Z,0
2016-12-02T05:40:20.760Z,0
2016-12-02T05:41:30.466Z,0
2016-12-02T05:42:40.803Z,0
2016-12-02T05:43:50.819Z,0
2016-12-02T05:45:00.841Z,0
2016-12-02T05:46:11.165Z,0
2016-12-02T05:47:21.192Z,0
2016-12-02T05:48:30.895Z,0
2016-12-02T05:49:40.913Z,0
2016-12-02T05:50:51.250Z,0
2016-12-02T05:52:01.560Z,0
2016-12-02T05:53:11.885Z,0
2016-12-02T05:54:21.899Z,0
2016-12-02T05:55:31.917Z,0
2016-12-02T05:56:41.310Z,0
2016-12-02T05:57:51.641Z,0
2016-12-02T05:59:01.971Z,0
2016-12-02T06:00:11.683Z,0
2016-12-02T06:01:22.006Z,0
2016-12-02T06:02:32.021Z,0
2016-12-02T06:03:42.050Z,0
2016-12-02T06:04:51.449Z,0
2016-12-02T06:06:01.147Z,0
2016-12-02T06:07:10.839Z,0
2016-12-02T06:08:21.159Z,0
2016-12-02T06:09:30.552Z,0
2016-12-02T06:10:40.573Z,0
2016-12-02T06:11:50.905Z,0
2016-12-02T06:13:01.243Z,0
2016-12-02T06:14:10.943Z,0
2016-12-02T06:15:20.643Z,0
2016-12-02T06:16:30.965Z,0
2016-12-02T06:17:41.036Z,0
2016-12-02T06:18:50.743Z,0
2016-12-02T06:20:00.796Z,0
2016-12-02T06:21:10.811Z,0
2016-12-02T06:22:20.824Z,0
2016-12-02T06:23:30.564Z,0
2016-12-02T06:24:39.972Z,0
2016-12-02T06:25:50.311Z,0
2016-12-02T06:27:00.630Z,0
2016-12-02T06:28:10.337Z,0
2016-12-02T06:29:20.675Z,0
2016-12-02T06:30:30.390Z,0
2016-12-02T06:31:40.099Z,0
2016-12-02T06:32:50.104Z,0
2016-12-02T06:33:59.795Z,5
2016-12-02T06:35:09.812Z,5
2016-12-02T06:36:19.824Z,5
2016-12-02T06:37:29.840Z,5
2016-12-02T06:38:40.178Z,5
2016-12-02T06:39:50.236Z,5
2016-12-02T06:41:00.256Z,5
2016-12-02T06:42:09.973Z,5
2016-12-02T06:43:19.975Z,5
2016-12-02T06:44:30.311Z,5
2016-12-02T06:45:40.322Z,5
2016-12-02T06:46:50.641Z,5
2016-12-02T06:48:00.976Z,5
2016-12-02T06:49:10.987Z,5
2016-12-02T06:50:21.004Z,10
2016-12-02T06:51:30.393Z,10
2016-12-02T06:52:40.465Z,5
2016-12-02T06:53:50.786Z,5
2016-12-02T06:55:00.812Z,5
2016-12-02T06:56:10.838Z,5
2016-12-02T06:57:20.868Z,10
2016-12-02T06:58:30.887Z,10
2016-12-02T06:59:40.894Z,10
2016-12-02T07:00:50.905Z,10
2016-12-02T07:02:00.290Z,5
2016-12-02T07:03:10.310Z,10
2016-12-02T07:04:20.644Z,10
2016-12-02T07:05:30.671Z,10
2016-12-02T07:06:40.684Z,10
2016-12-02T07:07:50.696Z,10
2016-12-02T07:09:00.771Z,15
2016-12-02T07:10:10.168Z,15
2016-12-02T07:11:19.875Z,10
2016-12-02T07:12:30.213Z,10
2016-12-02T07:13:40.533Z,10
2016-12-02T07:14:50.872Z,10
2016-12-02T07:16:01.207Z,10
2016-12-02T07:17:11.255Z,10
2016-12-02T07:18:20.966Z,10
2016-12-02T07:19:30.985Z,10
2016-12-02T07:20:41.322Z,10
2016-12-02T07:21:51.032Z,10
2016-12-02T07:23:01.405Z,10
2016-12-02T07:24:11.424Z,15
2016-12-02T07:25:21.748Z,15
2016-12-02T07:26:32.088Z,15
2016-12-02T07:27:42.125Z,15
2016-12-02T07:28:52.438Z,15
2016-12-02T07:30:02.458Z,15
2016-12-02T07:31:12.485Z,15
2016-12-02T07:32:22.812Z,15
2016-12-02T07:33:33.144Z,15
2016-12-02T07:34:42.860Z,15
2016-12-02T07:35:52.567Z,20
2016-12-02T07:37:02.904Z,20
2016-12-02T07:38:13.241Z,20
2016-12-02T07:39:23.554Z,20
2016-12-02T07:40:33.904Z,20
2016-12-02T07:41:43.615Z,25
2016-12-02T07:42:53.634Z,30
2016-12-02T07:44:03.644Z,30
2016-12-02T07:45:13.676Z,35
2016-12-02T07:46:23.394Z,35
2016-12-02T07:47:33.721Z,40
2016-12-02T07:48:44.046Z,45
2016-12-02T07:49:54.073Z,50
2016-12-02T07:51:04.108Z,50
2016-12-02T07:52:13.816Z,65
2016-12-02T07:53:24.152Z,55
2016-12-02T07:54:34.483Z,65
2016-12-02T07:55:44.820Z,50
2016-12-02T07:56:54.512Z,55
2016-12-02T07:58:04.539Z,55
2016-12-02T07:59:15.126Z,60
2016-12-02T08:00:25.465Z,55
2016-12-02T08:01:35.168Z,65
2016-12-02T08:02:45.510Z,60
2016-12-02T08:03:55.828Z,60
2016-12-02T08:05:05.859Z,50
2016-12-02T08:06:16.205Z,50
2016-12-02T08:07:26.226Z,50
2016-12-02T08:08:36.569Z,50
2016-12-02T08:09:46.575Z,45
2016-12-02T08:10:56.897Z,40
2016-12-02T08:12:07.217Z,35
2016-12-02T08:13:17.571Z,30
2016-12-02T08:14:27.287Z,25
2016-12-02T08:15:36.369Z,25
2016-12-02T08:16:46.640Z,20
2016-12-02T08:17:56.967Z,20
2016-12-02T08:19:07.303Z,15
2016-12-02T08:20:17.010Z,20
2016-12-02T08:21:27.341Z,15
2016-12-02T08:22:37.652Z,15
2016-12-02T08:23:47.979Z,15
2016-12-02T08:24:58.310Z,10
2016-12-02T08:26:08.648Z,10
2016-12-02T08:27:18.665Z,10
2016-12-02T08:28:28.991Z,15
2016-12-02T08:29:39.026Z,15
2016-12-02T08:30:49.049Z,15
2016-12-02T08:31:59.387Z,10
2016-12-02T08:33:09.432Z,10
2016-12-02T08:34:19.449Z,10
2016-12-02T08:35:29.780Z,10
2016-12-02T08:36:39.807Z,10
2016-12-02T08:37:49.520Z,10
2016-12-02T08:38:59.852Z,10
2016-12-02T08:40:10.194Z,10
2016-12-02T08:41:20.525Z,10
2016-12-02T08:42:30.865Z,10
2016-12-02T08:43:40.883Z,10
2016-12-02T08:44:50.908Z,10
2016-12-02T08:46:00.304Z,5
2016-12-02T08:47:10.316Z,5
2016-12-02T08:48:20.658Z,5
2016-12-02T08:49:30.980Z,5
2016-12-02T08:50:40.696Z,10
2016-12-02T08:51:51.033Z,10
2016-12-02T08:53:01.050Z,15
2016-12-02T08:54:11.382Z,10
2016-12-02T08:55:21.710Z,15
2016-12-02T08:56:31.449Z,15
2016-12-02T08:57:41.782Z,15
2016-12-02T08:58:51.498Z,15
2016-12-02T09:00:01.816Z,15
2016-12-02T09:01:11.526Z,20
2016-12-02T09:02:21.859Z,25
2016-12-02T09:03:32.192Z,25
2016-12-02T09:04:42.527Z,25
2016-12-02T09:05:52.849Z,25
2016-12-02T09:07:02.869Z,25
2016-12-02T09:08:13.182Z,35
2016-12-02T09:09:23.499Z,35
2016-12-02T09:10:33.864Z,40
2016-12-02T09:11:44.186Z,45
2016-12-02T09:12:53.879Z,60
2016-12-02T09:14:03.925Z,70
2016-12-02T09:15:14.335Z,80
2016-12-02T09:16:24.395Z,80
2016-12-02T09:17:34.414Z,80
2016-12-02T09:18:44.768Z,75
2016-12-02T09:19:55.164Z,80
2016-12-02T09:21:05.201Z,90
2016-12-02T09:22:14.596Z,95
2016-12-02T09:23:24.303Z,90
2016-12-02T09:24:34.675Z,80
2016-12-02T09:25:44.397Z,80
2016-12-02T09:26:54.729Z,75
2016-12-02T09:28:04.443Z,75
2016-12-02T09:29:14.463Z,70
2016-12-02T09:30:24.507Z,70
2016-12-02T09:31:34.855Z,70
2016-12-02T09:32:45.222Z,70
2016-12-02T09:33:55.248Z,70
2016-12-02T09:35:04.966Z,75
2016-12-02T09:36:14.707Z,80
2016-12-02T09:37:24.725Z,85
2016-12-02T09:38:34.791Z,80
2016-12-02T09:39:45.128Z,70
2016-12-02T09:40:55.160Z,70
2016-12-02T09:42:05.191Z,70
2016-12-02T09:43:14.888Z,75
2016-12-02T09:44:25.222Z,80
2016-12-02T09:45:34.310Z,80
2016-12-02T09:46:44.662Z,80
2016-12-02T09:47:54.984Z,80
2016-12-02T09:49:05.305Z,80
2016-12-02T09:50:15.330Z,75
2016-12-02T09:51:25.044Z,75
2016-12-02T09:52:35.378Z,80
2016-12-02T09:53:45.395Z,75
2016-12-02T09:54:55.738Z,75
2016-12-02T09:56:05.512Z,75
2016-12-02T09:57:15.846Z,75
2016-12-02T09:58:26.190Z,80
2016-12-02T09:59:36.517Z,85
2016-12-02T10:00:46.847Z,85
2016-12-02T10:01:56.874Z,85
2016-12-02T10:03:06.893Z,85
2016-12-02T10:04:17.240Z,85
2016-12-02T10:05:26.945Z,85
2016-12-02T10:06:36.952Z,85
2016-12-02T10:07:46.663Z,80
2016-12-02T10:08:56.692Z,85
2016-12-02T10:10:07.027Z,85
2016-12-02T10:11:17.358Z,85
2016-12-02T10:12:27.367Z,85
2016-12-02T10:13:37.707Z,80
2016-12-02T10:14:47.419Z,75
2016-12-02T10:15:57.734Z,70
2016-12-02T10:17:08.068Z,70
2016-12-02T10:18:18.410Z,75
2016-12-02T10:19:28.427Z,85
2016-12-02T10:20:38.773Z,85
2016-12-02T10:21:48.822Z,90
2016-12-02T10:22:59.149Z,90
2016-12-02T10:24:08.863Z,80
2016-12-02T10:25:19.200Z,80
2016-12-02T10:26:29.228Z,85
2016-12-02T10:27:39.251Z,85
2016-12-02T10:28:48.674Z,85
2016-12-02T10:29:58.997Z,95
2016-12-02T10:31:09.000Z,105
2016-12-02T10:32:19.327Z,120
2016-12-02T10:33:29.658Z,120
2016-12-02T10:34:39.365Z,125
2016-12-02T10:35:49.693Z,125
2016-12-02T10:37:00.039Z,130
2016-12-02T10:38:10.359Z,125
2016-12-02T10:39:20.681Z,120
2016-12-02T10:40:30.698Z,120
2016-12-02T10:41:41.035Z,120
2016-12-02T10:42:51.366Z,120
2016-12-02T10:44:01.103Z,120
2016-12-02T10:45:10.821Z,120
2016-12-02T10:46:21.147Z,120
2016-12-02T10:47:31.492Z,120
2016-12-02T10:48:41.511Z,120
2016-12-02T10:49:51.867Z,115
2016-12-02T10:51:02.298Z,115
2016-12-02T10:52:12.379Z,120
2016-12-02T10:53:22.393Z,120
2016-12-02T10:54:32.084Z,125
2016-12-02T10:55:42.105Z,120
2016-12-02T10:56:52.540Z,120
2016-12-02T10:58:02.561Z,120
2016-12-02T10:59:12.286Z,115
2016-12-02T11:00:22.614Z,115
2016-12-02T11:01:32.624Z,115
2016-12-02T11:02:43.056Z,110
2016-12-02T11:03:53.399Z,115
2016-12-02T11:05:03.718Z,120
2016-12-02T11:12:34.774Z,125
2016-12-02T11:13:45.120Z,110
2016-12-02T11:14:55.138Z,110
2016-12-02T11:16:05.460Z,110
2016-12-02T11:17:15.177Z,110
2016-12-02T11:18:25.203Z,110
2016-12-02T11:19:35.534Z,110
2016-12-02T11:20:45.242Z,110
2016-12-02T11:21:55.567Z,115
2016-12-02T11:23:05.905Z,115
2016-12-02T11:24:16.237Z,120
2016-12-02T11:25:26.573Z,120
2016-12-02T11:26:36.601Z,125
2016-12-02T11:27:46.945Z,120
2016-12-02T11:28:56.642Z,120
2016-12-02T11:30:06.965Z,170
2016-12-02T11:31:17.312Z,125
2016-12-02T11:32:27.328Z,110
2016-12-02T11:33:37.024Z,100
2016-12-02T11:34:47.028Z,100
2016-12-02T11:35:57.349Z,95
2016-12-02T11:37:07.676Z,95
2016-12-02T11:38:17.693Z,100
2016-12-02T11:39:28.039Z,100
2016-12-02T11:40:38.050Z,100
2016-12-02T11:41:48.372Z,100
2016-12-02T11:42:58.393Z,100
2016-12-02T11:44:08.720Z,100
2016-12-02T11:45:18.736Z,95
2016-12-02T11:46:29.093Z,95
2016-12-02T11:47:38.796Z,100
2016-12-02T11:48:48.808Z,105
2016-12-02T11:49:58.829Z,105
2016-12-02T11:51:09.175Z,105
2016-12-02T11:52:19.203Z,105
2016-12-02T11:53:28.908Z,105
2016-12-02T11:54:38.932Z,105
2016-12-02T11:55:49.254Z,105
2016-12-02T11:56:58.649Z,105
2016-12-02T11:58:08.970Z,100
2016-12-02T11:59:18.663Z,100
2016-12-02T12:00:28.708Z,100
2016-12-02T12:01:38.406Z,100
2016-12-02T12:02:48.734Z,100
2016-12-02T12:03:58.766Z,105
2016-12-02T12:05:08.786Z,105
2016-12-02T12:06:18.813Z,110
2016-12-02T12:07:28.830Z,105
2016-12-02T12:08:39.195Z,100
2016-12-02T12:09:49.213Z,95
2016-12-02T12:10:59.241Z,95
2016-12-02T12:12:09.583Z,85
2016-12-02T12:13:19.285Z,85
2016-12-02T12:14:29.297Z,75
2016-12-02T12:15:39.328Z,75
2016-12-02T12:16:49.655Z,75
2016-12-02T12:17:59.681Z,75
2016-12-02T12:19:09.706Z,75
2016-12-02T12:20:19.733Z,80
2016-12-02T12:21:30.052Z,80
2016-12-02T12:22:39.761Z,70
2016-12-02T12:23:50.090Z,70
2016-12-02T12:25:00.420Z,70
2016-12-02T12:26:10.472Z,70
2016-12-02T12:27:20.794Z,70
2016-12-02T12:28:30.831Z,70
2016-12-02T12:29:40.872Z,70
2016-12-02T12:30:50.589Z,70
2016-12-02T12:32:00.916Z,70
2016-12-02T12:33:10.937Z,95
2016-12-02T12:34:20.965Z,105
2016-12-02T12:35:31.301Z,75
2016-12-02T12:36:41.658Z,65
2016-12-02T12:37:51.982Z,65
2016-12-02T12:39:01.988Z,65
2016-12-02T12:40:12.300Z,65
2016-12-02T12:41:22.350Z,70
2016-12-02T12:42:32.092Z,70
2016-12-02T12:43:42.433Z,70
2016-12-02T12:44:52.766Z,75
2016-12-02T12:46:02.797Z,70
2016-12-02T12:47:12.818Z,85
2016-12-02T12:48:22.541Z,195
2016-12-02T12:49:32.266Z,175
2016-12-02T12:50:42.329Z,160
2016-12-02T12:51:52.050Z,170
2016-12-02T12:53:02.406Z,80
2016-12-02T12:54:12.760Z,80
2016-12-02T12:55:22.788Z,165
2016-12-02T12:56:32.496Z,165
2016-12-02T12:57:42.519Z,120
2016-12-02T12:58:52.225Z,90
2016-12-02T13:00:02.548Z,115
2016-12-02T13:01:12.874Z,160
2016-12-02T13:02:23.226Z,155
2016-12-02T13:03:33.237Z,155
2016-12-02T13:04:43.252Z,150
2016-12-02T13:05:52.971Z,150
2016-12-02T13:07:03.283Z,150
2016-12-02T13:08:13.308Z,150
2016-12-02T13:09:23.647Z,150
2016-12-02T13:10:33.988Z,145
2016-12-02T13:11:43.705Z,145
2016-12-02T13:12:53.722Z,145
2016-12-02T13:14:03.761Z,140
2016-12-02T13:15:13.775Z,140
2016-12-02T13:16:23.882Z,140
2016-12-02T13:17:33.896Z,135
2016-12-02T13:18:43.910Z,135
2016-12-02T13:19:53.638Z,135
2016-12-02T13:21:03.978Z,135
2016-12-02T13:22:14.016Z,135
2016-12-02T13:23:24.046Z,135
2016-12-02T13:24:34.053Z,130
2016-12-02T13:25:43.757Z,125
2016-12-02T13:26:53.776Z,125
2016-12-02T13:28:04.098Z,125
2016-12-02T13:29:14.131Z,120
2016-12-02T13:30:24.461Z,120
2016-12-02T13:31:34.474Z,120
2016-12-02T13:32:44.809Z,120
2016-12-02T13:33:55.133Z,115
2016-12-02T13:35:04.848Z,115
2016-12-02T13:36:14.883Z,120
2016-12-02T13:37:24.892Z,115
2016-12-02T13:38:34.919Z,115
2016-12-02T13:39:45.244Z,115
2016-12-02T13:40:55.267Z,110
2016-12-02T13:42:05.615Z,110
2016-12-02T13:43:15.640Z,110
2016-12-02T13:44:25.658Z,110
2016-12-02T13:45:36.004Z,105
2016-12-02T13:46:46.334Z,100
2016-12-02T13:47:56.672Z,100
2016-12-02T13:49:06.998Z,95
2016-12-02T13:50:17.331Z,95
2016-12-02T13:51:27.687Z,95
2016-12-02T13:52:38.024Z,95
2016-12-02T13:53:48.377Z,90
2016-12-02T13:54:58.707Z,90
2016-12-02T13:56:09.048Z,90
2016-12-02T13:57:19.066Z,90
2016-12-02T13:58:29.077Z,85
2016-12-02T13:59:39.084Z,85
2016-12-02T14:00:49.448Z,80
2016-12-02T14:01:59.467Z,80
2016-12-02T14:03:09.493Z,80
2016-12-02T14:04:19.816Z,80
2016-12-02T14:05:29.852Z,80
2016-12-02T14:06:39.869Z,80
2016-12-02T14:07:49.893Z,80
2016-12-02T14:09:00.230Z,70
2016-12-02T14:10:09.636Z,65
2016-12-02T14:11:20.011Z,60
2016-12-02T14:12:29.728Z,55
2016-12-02T14:13:40.061Z,55
2016-12-02T14:14:49.772Z,50
2016-12-02T14:15:59.794Z,50
2016-12-02T14:17:10.120Z,45
2016-12-02T14:18:19.815Z,40
2016-12-02T14:19:29.843Z,40
2016-12-02T14:20:40.165Z,40
2016-12-02T14:21:50.190Z,40
2016-12-02T14:23:00.231Z,40
2016-12-02T14:24:10.259Z,40
2016-12-02T14:25:20.573Z,35
2016-12-02T14:26:30.892Z,35
2016-12-02T14:27:41.223Z,30
2016-12-02T14:28:51.549Z,30
2016-12-02T14:30:01.256Z,30
2016-12-02T14:31:11.270Z,30
2016-12-02T14:32:21.624Z,25
2016-12-02T14:33:31.643Z,25
2016-12-02T14:34:41.676Z,25
2016-12-02T14:35:51.709Z,25
2016-12-02T14:37:01.721Z,20
2016-12-02T14:38:11.769Z,20
2016-12-02T14:39:21.776Z,20
2016-12-02T14:40:31.804Z,20
2016-12-02T14:41:41.839Z,15
2016-12-02T14:42:51.857Z,15
2016-12-02T14:44:02.176Z,15
2016-12-02T14:45:12.534Z,15
2016-12-02T14:46:22.256Z,15
2016-12-02T14:47:32.603Z,10
2016-12-02T14:48:42.636Z,10
2016-12-02T14:49:52.668Z,10
2016-12-02T14:51:02.687Z,10
2016-12-02T14:52:13.024Z,10
2016-12-02T14:53:23.026Z,10
2016-12-02T14:54:33.307Z,5
2016-12-02T14:55:43.640Z,5
2016-12-02T14:56:53.663Z,5
2016-12-02T14:58:04.004Z,5
2016-12-02T14:59:14.354Z,5
2016-12-02T15:00:24.402Z,5
2016-12-02T15:01:34.724Z,5
2016-12-02T15:02:44.749Z,5
2016-12-02T15:03:54.487Z,0
2016-12-02T15:05:04.816Z,0
2016-12-02T15:06:15.170Z,0
2016-12-02T15:07:25.533Z,0
2016-12-02T15:08:35.868Z,0
2016-12-02T15:09:45.889Z,0
2016-12-02T15:10:56.212Z,0
2016-12-02T15:12:05.928Z,0
2016-12-02T15:13:15.633Z,0
2016-12-02T15:14:25.651Z,0
2016-12-02T15:15:35.378Z,0
2016-12-02T15:16:45.085Z,0
2016-12-02T15:17:55.421Z,0
2016-12-02T15:19:05.139Z,0
2016-12-02T15:20:15.469Z,0
2016-12-02T15:21:25.487Z,0
2016-12-02T15:22:35.498Z,0
2016-12-02T15:23:45.535Z,0
2016-12-02T15:24:55.875Z,0
2016-12-02T15:26:05.927Z,0
2016-12-02T15:27:15.941Z,0
2016-12-02T15:28:26.286Z,0
2016-12-02T15:29:36.304Z,0
2016-12-02T15:30:46.320Z,0
2016-12-02T15:31:56.011Z,0
2016-12-02T15:33:06.038Z,0
2016-12-02T15:34:16.371Z,0
2016-12-02T15:35:26.391Z,0
2016-12-02T15:36:36.413Z,0
2016-12-02T15:37:46.440Z,0
2016-12-02T15:38:56.464Z,0
2016-12-02T15:40:06.486Z,0
2016-12-02T15:41:16.209Z,0
2016-12-02T15:42:26.268Z,0
2016-12-02T15:43:36.618Z,0
2016-12-02T15:44:46.654Z,0
2016-12-02T15:45:57.037Z,0
2016-12-02T15:47:07.064Z,0
2016-12-02T15:48:17.434Z,0
2016-12-02T15:49:27.766Z,0
2016-12-02T15:50:37.793Z,0
2016-12-02T15:51:47.816Z,0
2016-12-02T15:52:57.836Z,0
2016-12-02T15:54:07.867Z,0
2016-12-02T15:55:18.205Z,0
2016-12-02T15:56:28.222Z,0
2016-12-02T15:57:38.548Z,0
2016-12-02T15:58:48.564Z,0
2016-12-02T15:59:58.578Z,0
2016-12-02T16:01:08.924Z,0
2016-12-02T16:02:19.265Z,0
2016-12-02T16:03:29.608Z,0
2016-12-02T16:04:39.308Z,0
2016-12-02T16:05:49.645Z,0
2016-12-02T16:06:59.967Z,0
2016-12-02T16:08:10.308Z,0
2016-12-02T16:09:20.330Z,0
2016-12-02T16:10:30.651Z,0
2016-12-02T16:11:40.672Z,0
2016-12-02T16:12:50.694Z,0
2016-12-02T16:14:01.033Z,0
2016-12-02T16:15:11.379Z,0
2016-12-02T16:16:21.699Z,0
2016-12-02T16:17:31.720Z,0
2016-12-02T16:18:42.059Z,0
2016-12-02T16:19:52.436Z,0
2016-12-02T16:21:02.764Z,0
2016-12-02T16:22:12.813Z,0
2016-12-02T16:23:23.191Z,0
2016-12-02T16:24:33.541Z,0
2016-12-02T16:25:43.245Z,0
2016-12-02T16:26:53.605Z,0
2016-12-02T16:28:03.947Z,0
2016-12-02T16:29:14.273Z,0
2016-12-02T16:30:24.296Z,0
2016-12-02T16:31:34.626Z,0
2016-12-02T16:32:44.645Z,0
2016-12-02T16:33:55.005Z,0
2016-12-02T16:35:05.335Z,0
2016-12-02T16:36:15.357Z,0
2016-12-02T16:37:25.700Z,0
2016-12-02T16:38:35.717Z,0
2016-12-02T16:39:45.726Z,0
2016-12-02T16:40:56.058Z,0
2016-12-02T16:42:06.083Z,0
2016-12-02T16:43:16.444Z,0
2016-12-02T16:44:26.781Z,0
2016-12-02T16:45:37.132Z,0
2016-12-02T16:46:47.149Z,0
2016-12-02T16:47:57.486Z,0
2016-12-02T16:49:07.817Z,0
2016-12-02T16:50:17.840Z,0
2016-12-02T16:51:27.862Z,0
2016-12-02T16:52:38.189Z,0
2016-12-02T16:53:48.543Z,0
2016-12-02T16:54:58.563Z,0
2016-12-02T16:56:08.903Z,0
2016-12-02T16:57:19.226Z,0
2016-12-02T16:58:29.240Z,0
2016-12-02T16:59:39.565Z,0
2016-12-02T17:00:49.599Z,0
2016-12-02T17:01:59.305Z,0
2016-12-02T17:03:09.333Z,0
2016-12-02T17:04:19.349Z,0
2016-12-02T17:05:29.367Z,0
2016-12-02T17:06:39.713Z,0
2016-12-02T17:07:49.744Z,0
2016-12-02T17:09:00.073Z,0
2016-12-02T17:10:10.418Z,0
2016-12-02T17:11:20.432Z,0
2016-12-02T17:12:30.774Z,0
2016-12-02T17:13:40.798Z,0
2016-12-02T17:14:51.166Z,0
2016-12-02T17:16:01.192Z,0
2016-12-02T17:17:11.564Z,0
2016-12-02T17:18:21.897Z,0
2016-12-02T17:19:31.914Z,0
2016-12-02T17:20:42.249Z,0
2016-12-02T17:21:52.278Z,0
2016-12-02T17:23:02.299Z,0
2016-12-02T17:24:12.340Z,0
2016-12-02T17:25:22.696Z,0
2016-12-02T17:26:32.723Z,0
2016-12-02T17:27:43.049Z,0
2016-12-02T17:28:52.752Z,0
2016-12-02T17:30:03.089Z,0